Jacksonville, Florida
Current Conditions -  °F | °C
As of 12:09 AM on Tuesday 23 Dec 2014 (Local Time) from KJAX Reporting Station
Overcast Overcast  
Wind Chill: 65°   Ceiling: 1200
Heat Index: 65°   Visibility: 7mi
Dew Point: 65°   Wind: 3mph
Humidity: 100%   Direction: 150°SSE
Pressure: 29.93"   Gusts: NA
Location:  30.32°N, 81.66°W
Report Text: KJAX 230509Z 15003KT 7SM SCT004 BKN012 OVC090 18/18 A2993 RMK AO2 OCNL LTGIC DSNT S CB DSNT S T01830183
Loading
Personal Weather Stations






























Interactive Weather Map New forecast layout! Learn more

10-Day Weather Forecast

Advertisements
Track Severe Weather on mobile